sensor_id;sensor_type;location;lat;lon;timestamp;temperature;humidity
67027;DHT22;53933;52.142;11.738;2022-08-14T00:00:41;26.20;64.70
67027;DHT22;53933;52.142;11.738;2022-08-14T00:03:07;26.20;64.60
67027;DHT22;53933;52.142;11.738;2022-08-14T00:05:35;26.20;64.50
67027;DHT22;53933;52.142;11.738;2022-08-14T00:08:02;26.20;64.70
67027;DHT22;53933;52.142;11.738;2022-08-14T00:10:29;26.20;65.00
67027;DHT22;53933;52.142;11.738;2022-08-14T00:12:55;26.10;65.00
67027;DHT22;53933;52.142;11.738;2022-08-14T00:15:27;26.10;65.10
67027;DHT22;53933;52.142;11.738;2022-08-14T00:17:54;26.10;65.20
67027;DHT22;53933;52.142;11.738;2022-08-14T00:20:24;26.00;65.20
67027;DHT22;53933;52.142;11.738;2022-08-14T00:22:52;25.90;65.70
67027;DHT22;53933;52.142;11.738;2022-08-14T00:25:19;25.70;66.10
67027;DHT22;53933;52.142;11.738;2022-08-14T00:27:46;25.60;67.00
67027;DHT22;53933;52.142;11.738;2022-08-14T00:30:14;25.60;67.10
67027;DHT22;53933;52.142;11.738;2022-08-14T00:32:41;25.60;67.00
67027;DHT22;53933;52.142;11.738;2022-08-14T00:35:09;25.40;67.60
67027;DHT22;53933;52.142;11.738;2022-08-14T00:37:37;25.30;67.60
67027;DHT22;53933;52.142;11.738;2022-08-14T00:40:08;25.50;67.30
67027;DHT22;53933;52.142;11.738;2022-08-14T00:42:35;25.60;66.80
67027;DHT22;53933;52.142;11.738;2022-08-14T00:45:03;25.70;66.30
67027;DHT22;53933;52.142;11.738;2022-08-14T00:47:29;25.70;66.60
67027;DHT22;53933;52.142;11.738;2022-08-14T00:49:56;25.70;66.10
67027;DHT22;53933;52.142;11.738;2022-08-14T00:52:24;25.70;65.90
67027;DHT22;53933;52.142;11.738;2022-08-14T00:54:51;25.70;65.90
67027;DHT22;53933;52.142;11.738;2022-08-14T00:57:20;25.80;65.70
67027;DHT22;53933;52.142;11.738;2022-08-14T00:59:47;25.80;65.70
67027;DHT22;53933;52.142;11.738;2022-08-14T01:02:15;25.70;65.80
67027;DHT22;53933;52.142;11.738;2022-08-14T01:04:44;25.60;66.10
67027;DHT22;53933;52.142;11.738;2022-08-14T01:07:11;25.50;67.00
67027;DHT22;53933;52.142;11.738;2022-08-14T01:09:46;25.40;66.80
67027;DHT22;53933;52.142;11.738;2022-08-14T01:12:14;25.40;67.00
67027;DHT22;53933;52.142;11.738;2022-08-14T01:14:43;25.10;68.00
67027;DHT22;53933;52.142;11.738;2022-08-14T01:17:10;24.90;69.30
67027;DHT22;53933;52.142;11.738;2022-08-14T01:19:37;24.80;69.60
67027;DHT22;53933;52.142;11.738;2022-08-14T01:22:22;24.80;69.70
67027;DHT22;53933;52.142;11.738;2022-08-14T01:24:49;25.00;69.10
67027;DHT22;53933;52.142;11.738;2022-08-14T01:27:17;24.80;69.50
67027;DHT22;53933;52.142;11.738;2022-08-14T01:29:45;24.90;69.10
67027;DHT22;53933;52.142;11.738;2022-08-14T01:32:12;25.10;68.70
67027;DHT22;53933;52.142;11.738;2022-08-14T01:34:39;25.20;68.30
67027;DHT22;53933;52.142;11.738;2022-08-14T01:37:05;25.30;68.30
67027;DHT22;53933;52.142;11.738;2022-08-14T01:39:34;25.30;68.10
67027;DHT22;53933;52.142;11.738;2022-08-14T01:42:01;25.30;68.00
67027;DHT22;53933;52.142;11.738;2022-08-14T01:44:28;25.40;68.00
67027;DHT22;53933;52.142;11.738;2022-08-14T01:46:56;25.40;67.90
67027;DHT22;53933;52.142;11.738;2022-08-14T01:49:24;25.40;67.80
67027;DHT22;53933;52.142;11.738;2022-08-14T01:51:51;25.40;67.80
67027;DHT22;53933;52.142;11.738;2022-08-14T01:54:22;25.40;67.70
67027;DHT22;53933;52.142;11.738;2022-08-14T01:56:52;25.40;67.50
67027;DHT22;53933;52.142;11.738;2022-08-14T01:59:23;25.40;67.70
67027;DHT22;53933;52.142;11.738;2022-08-14T02:01:55;25.30;68.00
67027;DHT22;53933;52.142;11.738;2022-08-14T02:04:24;25.30;68.00
67027;DHT22;53933;52.142;11.738;2022-08-14T02:06:51;25.30;67.80
67027;DHT22;53933;52.142;11.738;2022-08-14T02:09:19;25.30;67.70
67027;DHT22;53933;52.142;11.738;2022-08-14T02:11:48;25.30;67.70
67027;DHT22;53933;52.142;11.738;2022-08-14T02:14:16;25.40;67.60
67027;DHT22;53933;52.142;11.738;2022-08-14T02:16:45;25.30;67.70
67027;DHT22;53933;52.142;11.738;2022-08-14T02:19:14;25.30;67.60
67027;DHT22;53933;52.142;11.738;2022-08-14T02:21:42;25.30;67.70
67027;DHT22;53933;52.142;11.738;2022-08-14T02:24:09;25.20;67.70
67027;DHT22;53933;52.142;11.738;2022-08-14T02:26:39;25.20;67.70
67027;DHT22;53933;52.142;11.738;2022-08-14T02:29:07;25.20;68.10
67027;DHT22;53933;52.142;11.738;2022-08-14T02:31:38;25.10;68.10
67027;DHT22;53933;52.142;11.738;2022-08-14T02:34:07;25.10;67.70
67027;DHT22;53933;52.142;11.738;2022-08-14T02:36:35;25.10;67.70
67027;DHT22;53933;52.142;11.738;2022-08-14T02:39:02;25.20;67.60
67027;DHT22;53933;52.142;11.738;2022-08-14T02:41:28;25.20;67.60
67027;DHT22;53933;52.142;11.738;2022-08-14T02:43:56;25.20;67.80
67027;DHT22;53933;52.142;11.738;2022-08-14T02:46:23;25.20;67.90
67027;DHT22;53933;52.142;11.738;2022-08-14T02:48:51;25.10;68.00
67027;DHT22;53933;52.142;11.738;2022-08-14T02:51:18;25.10;68.00
67027;DHT22;53933;52.142;11.738;2022-08-14T02:53:45;25.10;68.10
67027;DHT22;53933;52.142;11.738;2022-08-14T02:56:13;25.20;68.20
67027;DHT22;53933;52.142;11.738;2022-08-14T02:58:44;25.20;68.00
67027;DHT22;53933;52.142;11.738;2022-08-14T03:01:12;25.20;68.30
67027;DHT22;53933;52.142;11.738;2022-08-14T03:03:40;25.20;68.40
67027;DHT22;53933;52.142;11.738;2022-08-14T03:06:09;25.20;68.30
67027;DHT22;53933;52.142;11.738;2022-08-14T03:08:38;25.20;68.20
67027;DHT22;53933;52.142;11.738;2022-08-14T03:11:06;25.20;68.40
67027;DHT22;53933;52.142;11.738;2022-08-14T03:13:34;25.20;68.40
67027;DHT22;53933;52.142;11.738;2022-08-14T03:16:02;25.20;68.30
67027;DHT22;53933;52.142;11.738;2022-08-14T03:18:29;25.00;68.40
67027;DHT22;53933;52.142;11.738;2022-08-14T03:20:56;24.90;68.90
67027;DHT22;53933;52.142;11.738;2022-08-14T03:23:24;24.90;68.50
67027;DHT22;53933;52.142;11.738;2022-08-14T03:25:52;25.00;68.60
67027;DHT22;53933;52.142;11.738;2022-08-14T03:28:19;25.00;68.40
67027;DHT22;53933;52.142;11.738;2022-08-14T03:30:49;25.00;68.20
67027;DHT22;53933;52.142;11.738;2022-08-14T03:33:16;25.00;68.20
67027;DHT22;53933;52.142;11.738;2022-08-14T03:35:44;24.90;68.40
67027;DHT22;53933;52.142;11.738;2022-08-14T03:38:12;24.90;68.70
67027;DHT22;53933;52.142;11.738;2022-08-14T03:40:44;24.80;70.00
67027;DHT22;53933;52.142;11.738;2022-08-14T03:43:12;24.70;69.40
67027;DHT22;53933;52.142;11.738;2022-08-14T03:45:39;24.50;69.90
67027;DHT22;53933;52.142;11.738;2022-08-14T03:48:10;24.40;70.50
67027;DHT22;53933;52.142;11.738;2022-08-14T03:50:39;24.20;71.20
67027;DHT22;53933;52.142;11.738;2022-08-14T03:53:07;24.00;71.90
67027;DHT22;53933;52.142;11.738;2022-08-14T03:55:33;24.10;71.50
67027;DHT22;53933;52.142;11.738;2022-08-14T03:58:02;24.30;70.80
67027;DHT22;53933;52.142;11.738;2022-08-14T04:00:28;24.50;70.00
67027;DHT22;53933;52.142;11.738;2022-08-14T04:02:55;24.60;69.70
67027;DHT22;53933;52.142;11.738;2022-08-14T04:05:22;24.60;69.90
67027;DHT22;53933;52.142;11.738;2022-08-14T04:07:49;24.60;70.00
67027;DHT22;53933;52.142;11.738;2022-08-14T04:10:16;24.40;70.50
67027;DHT22;53933;52.142;11.738;2022-08-14T04:12:43;24.10;71.90
67027;DHT22;53933;52.142;11.738;2022-08-14T04:15:11;24.20;71.80
67027;DHT22;53933;52.142;11.738;2022-08-14T04:17:39;24.30;71.50
67027;DHT22;53933;52.142;11.738;2022-08-14T04:20:08;24.30;71.40
67027;DHT22;53933;52.142;11.738;2022-08-14T04:22:35;24.40;70.90
67027;DHT22;53933;52.142;11.738;2022-08-14T04:25:02;24.50;70.60
67027;DHT22;53933;52.142;11.738;2022-08-14T04:27:29;24.60;70.50
67027;DHT22;53933;52.142;11.738;2022-08-14T04:29:56;24.60;70.30
67027;DHT22;53933;52.142;11.738;2022-08-14T04:32:24;24.70;70.10
67027;DHT22;53933;52.142;11.738;2022-08-14T04:34:54;24.70;69.80
67027;DHT22;53933;52.142;11.738;2022-08-14T04:37:23;24.80;69.70
67027;DHT22;53933;52.142;11.738;2022-08-14T04:40:08;24.80;69.60
67027;DHT22;53933;52.142;11.738;2022-08-14T04:42:53;24.80;69.40
67027;DHT22;53933;52.142;11.738;2022-08-14T04:45:38;24.80;69.40
67027;DHT22;53933;52.142;11.738;2022-08-14T04:48:08;24.80;69.40
67027;DHT22;53933;52.142;11.738;2022-08-14T04:50:39;24.80;69.50
67027;DHT22;53933;52.142;11.738;2022-08-14T04:53:07;24.80;69.40
67027;DHT22;53933;52.142;11.738;2022-08-14T04:55:35;24.80;69.60
67027;DHT22;53933;52.142;11.738;2022-08-14T04:58:03;24.80;69.80
67027;DHT22;53933;52.142;11.738;2022-08-14T05:00:31;24.80;69.60
67027;DHT22;53933;52.142;11.738;2022-08-14T05:02:58;24.80;69.60
67027;DHT22;53933;52.142;11.738;2022-08-14T05:05:29;24.80;69.70
67027;DHT22;53933;52.142;11.738;2022-08-14T05:07:56;24.80;69.60
67027;DHT22;53933;52.142;11.738;2022-08-14T05:10:30;24.80;69.40
67027;DHT22;53933;52.142;11.738;2022-08-14T05:12:56;24.90;69.60
67027;DHT22;53933;52.142;11.738;2022-08-14T05:15:23;24.90;69.50
67027;DHT22;53933;52.142;11.738;2022-08-14T05:17:53;24.90;69.40
67027;DHT22;53933;52.142;11.738;2022-08-14T05:20:20;24.90;69.40
67027;DHT22;53933;52.142;11.738;2022-08-14T05:22:48;24.90;69.80
67027;DHT22;53933;52.142;11.738;2022-08-14T05:25:14;24.90;69.80
67027;DHT22;53933;52.142;11.738;2022-08-14T05:27:42;24.90;70.90
67027;DHT22;53933;52.142;11.738;2022-08-14T05:30:09;24.80;70.10
67027;DHT22;53933;52.142;11.738;2022-08-14T05:32:36;24.90;70.00
67027;DHT22;53933;52.142;11.738;2022-08-14T05:35:03;24.90;70.00
67027;DHT22;53933;52.142;11.738;2022-08-14T05:37:30;24.90;69.90
67027;DHT22;53933;52.142;11.738;2022-08-14T05:39:59;25.00;69.80
67027;DHT22;53933;52.142;11.738;2022-08-14T05:42:26;25.00;69.80
67027;DHT22;53933;52.142;11.738;2022-08-14T05:44:53;25.00;69.80
67027;DHT22;53933;52.142;11.738;2022-08-14T05:47:20;24.90;70.80
67027;DHT22;53933;52.142;11.738;2022-08-14T05:49:47;24.70;70.80
67027;DHT22;53933;52.142;11.738;2022-08-14T05:52:13;24.70;71.10
67027;DHT22;53933;52.142;11.738;2022-08-14T05:54:40;24.80;70.50
67027;DHT22;53933;52.142;11.738;2022-08-14T05:57:08;24.90;70.40
67027;DHT22;53933;52.142;11.738;2022-08-14T05:59:35;24.90;70.10
67027;DHT22;53933;52.142;11.738;2022-08-14T06:02:01;25.00;70.00
67027;DHT22;53933;52.142;11.738;2022-08-14T06:04:28;25.10;69.80
67027;DHT22;53933;52.142;11.738;2022-08-14T06:06:54;25.10;69.90
67027;DHT22;53933;52.142;11.738;2022-08-14T06:09:21;25.10;69.80
67027;DHT22;53933;52.142;11.738;2022-08-14T06:11:47;25.10;69.70
67027;DHT22;53933;52.142;11.738;2022-08-14T06:14:16;25.20;69.90
67027;DHT22;53933;52.142;11.738;2022-08-14T06:16:43;25.20;69.90
67027;DHT22;53933;52.142;11.738;2022-08-14T06:19:11;25.30;69.90
67027;DHT22;53933;52.142;11.738;2022-08-14T06:21:38;25.30;69.90
67027;DHT22;53933;52.142;11.738;2022-08-14T06:24:05;25.30;69.80
67027;DHT22;53933;52.142;11.738;2022-08-14T06:26:32;25.40;69.80
67027;DHT22;53933;52.142;11.738;2022-08-14T06:28:59;25.40;69.50
67027;DHT22;53933;52.142;11.738;2022-08-14T06:31:26;25.40;70.10
67027;DHT22;53933;52.142;11.738;2022-08-14T06:33:53;25.40;70.20
67027;DHT22;53933;52.142;11.738;2022-08-14T06:36:20;25.50;70.00
67027;DHT22;53933;52.142;11.738;2022-08-14T06:38:47;25.50;69.90
67027;DHT22;53933;52.142;11.738;2022-08-14T06:41:16;25.60;70.00
67027;DHT22;53933;52.142;11.738;2022-08-14T06:43:42;25.60;70.00
67027;DHT22;53933;52.142;11.738;2022-08-14T06:46:09;25.70;69.90
67027;DHT22;53933;52.142;11.738;2022-08-14T06:48:37;25.70;69.30
67027;DHT22;53933;52.142;11.738;2022-08-14T06:51:04;25.80;69.30
67027;DHT22;53933;52.142;11.738;2022-08-14T06:53:30;25.90;69.60
67027;DHT22;53933;52.142;11.738;2022-08-14T06:55:57;25.90;68.80
67027;DHT22;53933;52.142;11.738;2022-08-14T06:58:24;26.00;69.00
67027;DHT22;53933;52.142;11.738;2022-08-14T07:00:51;26.00;68.70
67027;DHT22;53933;52.142;11.738;2022-08-14T07:03:36;26.00;68.40
67027;DHT22;53933;52.142;11.738;2022-08-14T07:06:21;26.10;68.30
67027;DHT22;53933;52.142;11.738;2022-08-14T07:08:48;26.10;68.20
67027;DHT22;53933;52.142;11.738;2022-08-14T07:11:16;26.20;67.90
67027;DHT22;53933;52.142;11.738;2022-08-14T07:13:42;26.30;67.80
67027;DHT22;53933;52.142;11.738;2022-08-14T07:16:09;26.30;67.30
67027;DHT22;53933;52.142;11.738;2022-08-14T07:18:39;26.40;66.70
67027;DHT22;53933;52.142;11.738;2022-08-14T07:21:07;26.50;66.80
67027;DHT22;53933;52.142;11.738;2022-08-14T07:23:34;26.60;66.60
67027;DHT22;53933;52.142;11.738;2022-08-14T07:26:04;26.80;66.10
67027;DHT22;53933;52.142;11.738;2022-08-14T07:28:33;27.00;65.20
67027;DHT22;53933;52.142;11.738;2022-08-14T07:31:01;27.20;65.20
67027;DHT22;53933;52.142;11.738;2022-08-14T07:33:30;27.40;64.00
67027;DHT22;53933;52.142;11.738;2022-08-14T07:36:00;27.60;63.40
67027;DHT22;53933;52.142;11.738;2022-08-14T07:38:28;27.80;62.80
67027;DHT22;53933;52.142;11.738;2022-08-14T07:40:55;27.90;62.10
67027;DHT22;53933;52.142;11.738;2022-08-14T07:43:24;28.10;61.40
67027;DHT22;53933;52.142;11.738;2022-08-14T07:45:51;28.20;61.00
67027;DHT22;53933;52.142;11.738;2022-08-14T07:48:18;28.30;60.50
67027;DHT22;53933;52.142;11.738;2022-08-14T07:50:45;28.40;60.00
67027;DHT22;53933;52.142;11.738;2022-08-14T07:53:16;28.50;59.90
67027;DHT22;53933;52.142;11.738;2022-08-14T07:55:43;28.60;59.60
67027;DHT22;53933;52.142;11.738;2022-08-14T07:58:10;28.70;59.40
67027;DHT22;53933;52.142;11.738;2022-08-14T08:00:37;28.70;59.10
67027;DHT22;53933;52.142;11.738;2022-08-14T08:03:06;28.80;59.10
67027;DHT22;53933;52.142;11.738;2022-08-14T08:05:35;28.80;58.90
67027;DHT22;53933;52.142;11.738;2022-08-14T08:08:03;28.90;59.00
67027;DHT22;53933;52.142;11.738;2022-08-14T08:10:31;28.90;58.60
67027;DHT22;53933;52.142;11.738;2022-08-14T08:13:00;28.90;58.70
67027;DHT22;53933;52.142;11.738;2022-08-14T08:15:29;28.90;58.80
67027;DHT22;53933;52.142;11.738;2022-08-14T08:17:57;28.90;58.50
67027;DHT22;53933;52.142;11.738;2022-08-14T08:20:25;29.00;58.40
67027;DHT22;53933;52.142;11.738;2022-08-14T08:22:53;29.00;58.30
67027;DHT22;53933;52.142;11.738;2022-08-14T08:25:21;29.10;58.10
67027;DHT22;53933;52.142;11.738;2022-08-14T08:27:56;29.10;58.80
67027;DHT22;53933;52.142;11.738;2022-08-14T08:30:23;29.10;58.00
67027;DHT22;53933;52.142;11.738;2022-08-14T08:32:52;29.20;57.90
67027;DHT22;53933;52.142;11.738;2022-08-14T08:35:20;29.20;57.80
67027;DHT22;53933;52.142;11.738;2022-08-14T08:37:48;29.20;57.80
67027;DHT22;53933;52.142;11.738;2022-08-14T08:40:22;29.20;57.90
67027;DHT22;53933;52.142;11.738;2022-08-14T08:42:50;29.20;57.80
67027;DHT22;53933;52.142;11.738;2022-08-14T08:45:18;29.20;57.60
67027;DHT22;53933;52.142;11.738;2022-08-14T08:47:46;29.20;57.60
67027;DHT22;53933;52.142;11.738;2022-08-14T08:50:18;29.30;57.50
67027;DHT22;53933;52.142;11.738;2022-08-14T08:52:53;29.30;57.70
67027;DHT22;53933;52.142;11.738;2022-08-14T08:55:32;29.40;57.30
67027;DHT22;53933;52.142;11.738;2022-08-14T08:58:00;29.40;57.10
67027;DHT22;53933;52.142;11.738;2022-08-14T09:00:31;29.50;57.00
67027;DHT22;53933;52.142;11.738;2022-08-14T09:03:02;29.50;57.00
67027;DHT22;53933;52.142;11.738;2022-08-14T09:05:31;29.50;56.90
67027;DHT22;53933;52.142;11.738;2022-08-14T09:08:12;29.50;56.80
67027;DHT22;53933;52.142;11.738;2022-08-14T09:10:39;29.50;56.70
67027;DHT22;53933;52.142;11.738;2022-08-14T09:13:06;29.60;56.50
67027;DHT22;53933;52.142;11.738;2022-08-14T09:15:35;29.60;56.40
67027;DHT22;53933;52.142;11.738;2022-08-14T09:18:03;29.70;56.10
67027;DHT22;53933;52.142;11.738;2022-08-14T09:20:32;29.70;56.00
67027;DHT22;53933;52.142;11.738;2022-08-14T09:22:59;29.70;56.00
67027;DHT22;53933;52.142;11.738;2022-08-14T09:25:26;29.80;55.80
67027;DHT22;53933;52.142;11.738;2022-08-14T09:27:54;29.90;55.50
67027;DHT22;53933;52.142;11.738;2022-08-14T09:30:21;29.90;55.40
67027;DHT22;53933;52.142;11.738;2022-08-14T09:32:59;30.00;55.20
67027;DHT22;53933;52.142;11.738;2022-08-14T09:35:34;30.00;55.00
67027;DHT22;53933;52.142;11.738;2022-08-14T09:38:14;30.10;54.90
67027;DHT22;53933;52.142;11.738;2022-08-14T09:40:48;30.20;54.50
67027;DHT22;53933;52.142;11.738;2022-08-14T09:43:23;30.30;54.50
67027;DHT22;53933;52.142;11.738;2022-08-14T09:45:54;30.30;54.20
67027;DHT22;53933;52.142;11.738;2022-08-14T09:48:25;30.40;54.10
67027;DHT22;53933;52.142;11.738;2022-08-14T09:50:53;30.40;54.00
67027;DHT22;53933;52.142;11.738;2022-08-14T09:53:34;30.50;53.90
67027;DHT22;53933;52.142;11.738;2022-08-14T09:56:02;30.40;53.80
67027;DHT22;53933;52.142;11.738;2022-08-14T09:58:38;30.40;53.80
67027;DHT22;53933;52.142;11.738;2022-08-14T10:01:10;30.30;53.90
67027;DHT22;53933;52.142;11.738;2022-08-14T10:03:47;30.30;54.00
67027;DHT22;53933;52.142;11.738;2022-08-14T10:06:15;30.20;53.90
67027;DHT22;53933;52.142;11.738;2022-08-14T10:08:46;30.30;53.80
67027;DHT22;53933;52.142;11.738;2022-08-14T10:11:18;30.30;53.70
67027;DHT22;53933;52.142;11.738;2022-08-14T10:13:46;30.30;53.60
67027;DHT22;53933;52.142;11.738;2022-08-14T10:16:14;30.30;53.50
67027;DHT22;53933;52.142;11.738;2022-08-14T10:18:42;30.30;53.50
67027;DHT22;53933;52.142;11.738;2022-08-14T10:21:15;30.30;53.40
67027;DHT22;53933;52.142;11.738;2022-08-14T10:23:45;30.30;53.40
67027;DHT22;53933;52.142;11.738;2022-08-14T10:26:17;30.30;53.40
67027;DHT22;53933;52.142;11.738;2022-08-14T10:28:45;30.30;53.30
67027;DHT22;53933;52.142;11.738;2022-08-14T10:31:20;30.40;53.30
67027;DHT22;53933;52.142;11.738;2022-08-14T10:33:59;30.30;53.30
67027;DHT22;53933;52.142;11.738;2022-08-14T10:36:28;30.20;53.30
67027;DHT22;53933;52.142;11.738;2022-08-14T10:38:58;30.20;53.30
67027;DHT22;53933;52.142;11.738;2022-08-14T10:41:35;30.20;53.10
67027;DHT22;53933;52.142;11.738;2022-08-14T10:44:07;30.20;53.30
67027;DHT22;53933;52.142;11.738;2022-08-14T10:46:43;30.20;53.20
67027;DHT22;53933;52.142;11.738;2022-08-14T10:49:19;30.20;53.20
67027;DHT22;53933;52.142;11.738;2022-08-14T10:51:57;30.20;53.10
67027;DHT22;53933;52.142;11.738;2022-08-14T10:54:33;30.20;53.00
67027;DHT22;53933;52.142;11.738;2022-08-14T10:57:14;30.20;53.00
67027;DHT22;53933;52.142;11.738;2022-08-14T10:59:44;30.20;52.70
67027;DHT22;53933;52.142;11.738;2022-08-14T11:02:24;30.20;52.90
67027;DHT22;53933;52.142;11.738;2022-08-14T11:04:59;30.20;53.60
67027;DHT22;53933;52.142;11.738;2022-08-14T11:07:26;30.20;52.80
67027;DHT22;53933;52.142;11.738;2022-08-14T11:09:54;30.10;52.70
67027;DHT22;53933;52.142;11.738;2022-08-14T11:12:22;30.10;52.50
67027;DHT22;53933;52.142;11.738;2022-08-14T11:14:53;30.10;52.60
67027;DHT22;53933;52.142;11.738;2022-08-14T11:17:21;30.10;52.60
67027;DHT22;53933;52.142;11.738;2022-08-14T11:19:52;30.10;52.50
67027;DHT22;53933;52.142;11.738;2022-08-14T11:22:23;30.10;52.40
67027;DHT22;53933;52.142;11.738;2022-08-14T11:24:53;30.10;52.20
67027;DHT22;53933;52.142;11.738;2022-08-14T11:27:23;30.20;51.60
67027;DHT22;53933;52.142;11.738;2022-08-14T11:29:51;30.20;51.50
67027;DHT22;53933;52.142;11.738;2022-08-14T11:32:18;30.20;51.70
67027;DHT22;53933;52.142;11.738;2022-08-14T11:34:45;30.20;51.70
67027;DHT22;53933;52.142;11.738;2022-08-14T11:37:12;30.20;51.80
67027;DHT22;53933;52.142;11.738;2022-08-14T11:39:40;30.20;51.80
67027;DHT22;53933;52.142;11.738;2022-08-14T11:42:19;30.20;51.60
67027;DHT22;53933;52.142;11.738;2022-08-14T11:44:46;30.10;51.60
67027;DHT22;53933;52.142;11.738;2022-08-14T11:47:14;30.10;51.40
67027;DHT22;53933;52.142;11.738;2022-08-14T11:49:44;30.10;51.60
67027;DHT22;53933;52.142;11.738;2022-08-14T11:52:10;30.00;51.60
67027;DHT22;53933;52.142;11.738;2022-08-14T11:54:38;30.00;51.40
67027;DHT22;53933;52.142;11.738;2022-08-14T11:57:12;30.00;51.30
67027;DHT22;53933;52.142;11.738;2022-08-14T11:59:39;30.10;51.40
67027;DHT22;53933;52.142;11.738;2022-08-14T12:02:11;30.00;51.30
67027;DHT22;53933;52.142;11.738;2022-08-14T12:04:47;30.10;51.40
67027;DHT22;53933;52.142;11.738;2022-08-14T12:07:14;30.10;51.50
67027;DHT22;53933;52.142;11.738;2022-08-14T12:09:43;30.10;51.60
67027;DHT22;53933;52.142;11.738;2022-08-14T12:12:16;30.00;51.60
67027;DHT22;53933;52.142;11.738;2022-08-14T12:14:51;30.10;51.60
67027;DHT22;53933;52.142;11.738;2022-08-14T12:17:21;30.00;51.50
67027;DHT22;53933;52.142;11.738;2022-08-14T12:19:51;30.00;51.50
67027;DHT22;53933;52.142;11.738;2022-08-14T12:22:19;30.00;51.60
67027;DHT22;53933;52.142;11.738;2022-08-14T12:24:56;30.00;51.60
67027;DHT22;53933;52.142;11.738;2022-08-14T12:27:35;30.00;51.70
67027;DHT22;53933;52.142;11.738;2022-08-14T12:30:03;30.00;51.70
67027;DHT22;53933;52.142;11.738;2022-08-14T12:32:38;30.00;51.70
67027;DHT22;53933;52.142;11.738;2022-08-14T12:35:05;30.00;51.70
67027;DHT22;53933;52.142;11.738;2022-08-14T12:37:34;30.00;51.70
67027;DHT22;53933;52.142;11.738;2022-08-14T12:40:13;30.00;51.80
67027;DHT22;53933;52.142;11.738;2022-08-14T12:42:41;30.00;51.70
67027;DHT22;53933;52.142;11.738;2022-08-14T12:45:10;30.00;51.70
67027;DHT22;53933;52.142;11.738;2022-08-14T12:47:38;30.00;51.70
67027;DHT22;53933;52.142;11.738;2022-08-14T12:50:06;30.00;51.70
67027;DHT22;53933;52.142;11.738;2022-08-14T12:52:35;30.00;51.70
67027;DHT22;53933;52.142;11.738;2022-08-14T12:55:06;30.00;51.70
67027;DHT22;53933;52.142;11.738;2022-08-14T12:57:36;30.00;51.50
67027;DHT22;53933;52.142;11.738;2022-08-14T13:00:10;30.00;51.50
67027;DHT22;53933;52.142;11.738;2022-08-14T13:02:39;30.00;51.50
67027;DHT22;53933;52.142;11.738;2022-08-14T13:05:07;30.00;51.60
67027;DHT22;53933;52.142;11.738;2022-08-14T13:07:35;30.00;51.40
67027;DHT22;53933;52.142;11.738;2022-08-14T13:10:05;30.00;51.50
67027;DHT22;53933;52.142;11.738;2022-08-14T13:12:32;30.00;51.50
67027;DHT22;53933;52.142;11.738;2022-08-14T13:14:59;30.00;51.60
67027;DHT22;53933;52.142;11.738;2022-08-14T13:17:27;30.00;51.60
67027;DHT22;53933;52.142;11.738;2022-08-14T13:19:56;30.00;51.50
67027;DHT22;53933;52.142;11.738;2022-08-14T13:22:23;30.00;51.40
67027;DHT22;53933;52.142;11.738;2022-08-14T13:24:52;30.00;51.70
67027;DHT22;53933;52.142;11.738;2022-08-14T13:27:19;30.00;51.70
67027;DHT22;53933;52.142;11.738;2022-08-14T13:29:50;30.00;51.60
67027;DHT22;53933;52.142;11.738;2022-08-14T13:32:17;30.00;51.60
67027;DHT22;53933;52.142;11.738;2022-08-14T13:34:47;30.00;51.60
67027;DHT22;53933;52.142;11.738;2022-08-14T13:37:14;30.00;51.50
67027;DHT22;53933;52.142;11.738;2022-08-14T13:39:45;30.00;51.60
67027;DHT22;53933;52.142;11.738;2022-08-14T13:42:13;30.00;51.60
67027;DHT22;53933;52.142;11.738;2022-08-14T13:44:40;30.00;51.70
67027;DHT22;53933;52.142;11.738;2022-08-14T13:47:07;29.90;51.70
67027;DHT22;53933;52.142;11.738;2022-08-14T13:49:35;30.00;51.80
67027;DHT22;53933;52.142;11.738;2022-08-14T13:52:03;29.90;51.60
67027;DHT22;53933;52.142;11.738;2022-08-14T13:54:33;29.90;51.60
67027;DHT22;53933;52.142;11.738;2022-08-14T13:57:00;30.00;51.70
67027;DHT22;53933;52.142;11.738;2022-08-14T13:59:28;29.90;51.60
67027;DHT22;53933;52.142;11.738;2022-08-14T14:01:57;29.90;51.60
67027;DHT22;53933;52.142;11.738;2022-08-14T14:04:28;29.90;51.60
67027;DHT22;53933;52.142;11.738;2022-08-14T14:07:00;30.00;51.60
67027;DHT22;53933;52.142;11.738;2022-08-14T14:09:30;29.90;51.50
67027;DHT22;53933;52.142;11.738;2022-08-14T14:11:57;30.00;51.60
67027;DHT22;53933;52.142;11.738;2022-08-14T14:14:24;29.90;51.30
67027;DHT22;53933;52.142;11.738;2022-08-14T14:16:52;30.00;51.60
67027;DHT22;53933;52.142;11.738;2022-08-14T14:19:19;29.90;51.60
67027;DHT22;53933;52.142;11.738;2022-08-14T14:21:48;30.00;51.60
67027;DHT22;53933;52.142;11.738;2022-08-14T14:24:16;29.90;51.50
67027;DHT22;53933;52.142;11.738;2022-08-14T14:26:46;29.90;51.50
67027;DHT22;53933;52.142;11.738;2022-08-14T14:29:13;30.00;51.40
67027;DHT22;53933;52.142;11.738;2022-08-14T14:31:40;30.00;51.40
67027;DHT22;53933;52.142;11.738;2022-08-14T14:34:07;29.90;51.30
67027;DHT22;53933;52.142;11.738;2022-08-14T14:36:34;30.00;51.30
67027;DHT22;53933;52.142;11.738;2022-08-14T14:39:03;30.00;51.30
67027;DHT22;53933;52.142;11.738;2022-08-14T14:41:32;29.90;51.20
67027;DHT22;53933;52.142;11.738;2022-08-14T14:44:01;30.00;51.20
67027;DHT22;53933;52.142;11.738;2022-08-14T14:46:34;29.90;51.00
67027;DHT22;53933;52.142;11.738;2022-08-14T14:49:05;29.90;51.20
67027;DHT22;53933;52.142;11.738;2022-08-14T14:51:33;29.90;51.00
67027;DHT22;53933;52.142;11.738;2022-08-14T14:54:01;29.90;50.90
67027;DHT22;53933;52.142;11.738;2022-08-14T14:56:28;29.90;51.00
67027;DHT22;53933;52.142;11.738;2022-08-14T14:58:56;29.90;50.90
67027;DHT22;53933;52.142;11.738;2022-08-14T15:01:24;30.00;50.90
67027;DHT22;53933;52.142;11.738;2022-08-14T15:03:51;29.90;50.80
67027;DHT22;53933;52.142;11.738;2022-08-14T15:06:19;29.90;50.80
67027;DHT22;53933;52.142;11.738;2022-08-14T15:08:45;29.90;51.10
67027;DHT22;53933;52.142;11.738;2022-08-14T15:11:12;29.90;50.90
67027;DHT22;53933;52.142;11.738;2022-08-14T15:13:39;29.90;50.90
67027;DHT22;53933;52.142;11.738;2022-08-14T15:16:06;29.90;50.90
67027;DHT22;53933;52.142;11.738;2022-08-14T15:18:35;29.90;50.90
67027;DHT22;53933;52.142;11.738;2022-08-14T15:21:02;29.90;50.80
67027;DHT22;53933;52.142;11.738;2022-08-14T15:23:29;29.90;50.90
67027;DHT22;53933;52.142;11.738;2022-08-14T15:25:56;29.90;50.90